Time;durP1;ratioP1;P1;durP2;ratioP2;P2;SDS_P1;SDS_P2;PMS_P1;PMS_P2;Temp;Humidity;BMP_temperature;BMP_pressure;BME280_temperature;BME280_humidity;BME280_pressure;Samples;Min_cycle;Max_cycle;Signal;HPM_P1;HPM_P2
2023/07/07 03:16:51;;;;;;;4.03;0.88;;;17.50;75.70;;;;;;6119960;22;89608;-83
2023/07/07 03:19:21;;;;;;;3.38;0.82;;;17.50;75.90;;;;;;6152689;22;87863;-77
2023/07/07 03:21:47;;;;;;;2.45;0.47;;;17.50;75.70;;;;;;6154735;22;86695;-75
2023/07/07 03:24:15;;;;;;;4.38;0.55;;;17.50;75.60;;;;;;6156999;22;87814;-73
2023/07/07 03:26:40;;;;;;;3.55;1.00;;;17.50;75.80;;;;;;6156507;22;87961;-75
2023/07/07 03:29:07;;;;;;;6.07;0.60;;;17.40;75.50;;;;;;6157287;22;88228;-75
2023/07/07 03:31:33;;;;;;;3.78;0.60;;;17.40;75.60;;;;;;6157041;22;87217;-76
2023/07/07 03:34:02;;;;;;;6.68;1.00;;;17.50;75.80;;;;;;6156123;22;88139;-76
2023/07/07 03:36:29;;;;;;;3.30;0.47;;;17.50;74.90;;;;;;6157281;22;87403;-76
2023/07/07 03:38:55;;;;;;;7.68;1.00;;;17.60;75.20;;;;;;6156225;22;87316;-74
2023/07/07 03:41:23;;;;;;;2.88;0.70;;;17.60;75.10;;;;;;6157399;22;87384;-76
2023/07/07 03:43:50;;;;;;;3.03;0.60;;;17.60;74.80;;;;;;6157045;22;88571;-77
2023/07/07 03:46:18;;;;;;;2.90;0.75;;;17.60;74.80;;;;;;6155355;22;88889;-76
2023/07/07 03:48:46;;;;;;;3.15;0.63;;;17.60;74.60;;;;;;6158347;22;87226;-74
2023/07/07 03:51:13;;;;;;;2.17;0.52;;;17.70;74.00;;;;;;6156574;22;87476;-74
2023/07/07 03:53:39;;;;;;;2.80;0.70;;;17.70;74.00;;;;;;6157400;22;89114;-74
2023/07/07 03:56:05;;;;;;;2.42;0.70;;;17.80;74.10;;;;;;6157574;22;88878;-74
2023/07/07 03:58:32;;;;;;;3.38;0.70;;;17.80;73.90;;;;;;6158207;22;87431;-74
2023/07/07 04:01:06;;;;;;;2.80;0.60;;;17.90;73.90;;;;;;6158765;22;87254;-73
2023/07/07 04:03:31;;;;;;;3.67;0.70;;;18.20;72.90;;;;;;6157888;22;88081;-74
2023/07/07 04:05:58;;;;;;;4.53;0.73;;;18.50;71.90;;;;;;6158059;22;88300;-75
2023/07/07 04:08:25;;;;;;;4.50;0.70;;;18.90;71.20;;;;;;6131628;22;87376;-77
2023/07/07 04:11:05;;;;;;;3.33;0.82;;;19.20;69.90;;;;;;6158127;22;86446;-73
2023/07/07 04:13:33;;;;;;;5.07;0.75;;;19.60;68.50;;;;;;6155576;22;88820;-75
2023/07/07 04:16:11;;;;;;;3.10;0.90;;;19.90;67.60;;;;;;6158417;22;87395;-73
2023/07/07 04:18:38;;;;;;;4.57;0.73;;;20.30;67.00;;;;;;6127470;23;88423;-74
2023/07/07 04:21:09;;;;;;;5.68;0.82;;;20.80;65.50;;;;;;6101590;23;87243;-73
2023/07/07 04:23:37;;;;;;;3.28;1.10;;;21.10;64.80;;;;;;6127377;23;87784;-73
2023/07/07 04:26:04;;;;;;;5.03;1.38;;;21.40;63.00;;;;;;6127518;23;87789;-75
2023/07/07 04:28:30;;;;;;;3.60;0.82;;;21.80;62.40;;;;;;6128368;23;87386;-73
2023/07/07 04:30:57;;;;;;;5.45;0.80;;;22.20;61.80;;;;;;6128314;23;87665;-74
2023/07/07 04:33:25;;;;;;;4.45;0.85;;;22.60;60.50;;;;;;6128024;23;88162;-75
2023/07/07 04:36:01;;;;;;;3.83;1.10;;;23.10;59.60;;;;;;6127339;23;87897;-76
2023/07/07 04:38:31;;;;;;;6.50;1.10;;;23.40;57.70;;;;;;6128756;23;86969;-75
2023/07/07 04:41:13;;;;;;;3.22;1.10;;;23.80;57.50;;;;;;6128627;23;87549;-74
2023/07/07 04:43:44;;;;;;;7.25;1.08;;;24.30;56.30;;;;;;6126976;23;88644;-77
2023/07/07 04:46:11;;;;;;;4.35;1.05;;;24.70;54.60;;;;;;6125076;23;87974;-75
2023/07/07 04:48:37;;;;;;;7.15;1.33;;;24.90;54.50;;;;;;6126458;23;87238;-75
2023/07/07 04:51:07;;;;;;;3.50;1.25;;;25.30;53.80;;;;;;6127956;23;87298;-75
2023/07/07 04:53:35;;;;;;;2.20;1.00;;;25.60;53.40;;;;;;6127228;23;87462;-74
2023/07/07 04:56:02;;;;;;;7.68;1.02;;;26.10;52.00;;;;;;6124800;23;87439;-78
2023/07/07 04:58:28;;;;;;;6.50;1.45;;;26.50;52.30;;;;;;6124172;23;87242;-73
2023/07/07 05:01:08;;;;;;;6.20;1.90;;;27.20;51.40;;;;;;6125280;23;87066;-77
2023/07/07 05:03:35;;;;;;;3.13;1.70;;;27.60;49.50;;;;;;6124055;23;87514;-75
2023/07/07 05:06:03;;;;;;;6.80;1.65;;;27.70;49.60;;;;;;6124661;23;87675;-75
2023/07/07 05:08:31;;;;;;;5.50;1.83;;;27.80;49.30;;;;;;6124417;23;88935;-74
2023/07/07 05:10:56;;;;;;;6.90;1.70;;;28.00;48.50;;;;;;6127925;23;86981;-75
2023/07/07 05:13:22;;;;;;;3.80;1.45;;;28.70;48.00;;;;;;6125553;23;88249;-74
2023/07/07 05:15:48;;;;;;;5.82;1.80;;;29.20;47.40;;;;;;6125277;23;87404;-76
2023/07/07 05:18:15;;;;;;;3.90;1.48;;;29.50;46.60;;;;;;6125860;23;86970;-76
2023/07/07 05:20:40;;;;;;;3.55;1.77;;;29.80;46.30;;;;;;6127082;23;87705;-73
2023/07/07 05:23:06;;;;;;;4.00;1.50;;;30.10;45.90;;;;;;6126897;23;88630;-73
2023/07/07 05:25:32;;;;;;;3.78;1.73;;;30.40;45.60;;;;;;6127134;23;87784;-73
2023/07/07 05:27:57;;;;;;;4.07;1.73;;;30.60;44.90;;;;;;6125206;23;87225;-73
2023/07/07 05:30:23;;;;;;;2.85;1.50;;;31.00;44.10;;;;;;6125167;23;87416;-73
2023/07/07 05:32:48;;;;;;;4.22;1.30;;;31.20;43.30;;;;;;6123365;23;88875;-73
2023/07/07 05:35:14;;;;;;;5.28;1.60;;;31.40;42.70;;;;;;6121874;23;88700;-73
2023/07/07 05:37:40;;;;;;;4.47;1.60;;;31.80;43.20;;;;;;6126882;23;87482;-74
2023/07/07 05:40:06;;;;;;;5.45;2.10;;;32.30;42.20;;;;;;6126102;23;87670;-73
2023/07/07 05:42:32;;;;;;;4.88;1.75;;;32.40;41.60;;;;;;6124893;23;88588;-73
2023/07/07 05:44:58;;;;;;;4.60;1.80;;;32.70;42.00;;;;;;6125667;23;87734;-73
2023/07/07 05:47:24;;;;;;;8.02;1.75;;;33.00;41.30;;;;;;6122891;23;87846;-74
2023/07/07 05:49:53;;;;;;;5.07;2.10;;;33.40;40.50;;;;;;6127744;23;86405;-72
2023/07/07 05:52:19;;;;;;;6.53;2.40;;;33.60;40.60;;;;;;6126502;23;88529;-72
2023/07/07 05:54:44;;;;;;;5.85;1.88;;;33.60;40.00;;;;;;6125440;23;87244;-73
2023/07/07 05:57:10;;;;;;;5.05;1.92;;;34.20;40.00;;;;;;6125666;23;88356;-72
2023/07/07 05:59:35;;;;;;;7.07;2.08;;;34.50;39.50;;;;;;6101621;23;87100;-76
2023/07/07 06:02:01;;;;;;;7.70;1.90;;;34.60;39.00;;;;;;6126062;23;89035;-72
2023/07/07 06:04:27;;;;;;;4.63;1.88;;;34.50;38.60;;;;;;6127520;23;88716;-71
2023/07/07 06:06:52;;;;;;;3.80;1.80;;;35.20;38.60;;;;;;6126723;23;87369;-73
2023/07/07 06:09:18;;;;;;;8.13;2.15;;;35.60;38.10;;;;;;6128193;23;87061;-71
2023/07/07 06:11:46;;;;;;;4.07;2.05;;;36.30;37.50;;;;;;6125535;23;89163;-72
2023/07/07 06:14:11;;;;;;;7.15;1.83;;;36.50;36.80;;;;;;6127854;23;87168;-73
2023/07/07 06:16:37;;;;;;;7.80;3.92;;;36.50;36.90;;;;;;6128040;23;87355;-70
2023/07/07 06:19:03;;;;;;;5.72;2.25;;;36.30;37.60;;;;;;6128089;23;86978;-73
2023/07/07 06:21:28;;;;;;;5.60;2.20;;;36.90;37.60;;;;;;6125478;23;88791;-73
2023/07/07 06:23:54;;;;;;;7.85;2.53;;;36.80;36.00;;;;;;6127600;23;87699;-73
2023/07/07 06:26:20;;;;;;;4.00;2.72;;;36.60;36.50;;;;;;6127371;23;87409;-73
2023/07/07 06:28:45;;;;;;;5.05;2.70;;;36.60;36.30;;;;;;6127837;23;87316;-73
2023/07/07 06:31:11;;;;;;;4.10;2.42;;;36.80;36.10;;;;;;6127070;23;87743;-74
2023/07/07 06:33:36;;;;;;;4.65;2.42;;;36.80;35.80;;;;;;6127662;23;87520;-74
2023/07/07 06:36:02;;;;;;;4.15;2.38;;;37.10;35.80;;;;;;6127018;23;87247;-74
2023/07/07 06:38:28;;;;;;;4.20;2.67;;;37.70;35.90;;;;;;6128517;23;86309;-71
2023/07/07 06:40:54;;;;;;;5.43;2.55;;;38.10;35.00;;;;;;6127626;23;88109;-73
2023/07/07 06:43:20;;;;;;;5.78;2.95;;;38.20;34.40;;;;;;6127707;23;87989;-73
2023/07/07 06:45:50;;;;;;;4.97;2.78;;;38.00;35.10;;;;;;6125704;23;88610;-71
2023/07/07 06:48:16;;;;;;;4.90;2.72;;;37.80;34.50;;;;;;6127397;23;87416;-71
2023/07/07 06:50:42;;;;;;;4.45;3.50;;;38.40;34.80;;;;;;6126691;23;87600;-72
2023/07/07 06:53:10;;;;;;;7.63;2.67;;;38.90;35.00;;;;;;6127246;23;87700;-73
2023/07/07 06:55:37;;;;;;;7.95;3.08;;;39.20;35.00;;;;;;6127570;23;87041;-72
2023/07/07 06:58:02;;;;;;;4.32;2.97;;;39.20;34.70;;;;;;6127659;23;87319;-72
2023/07/07 07:00:30;;;;;;;7.50;4.03;;;39.70;33.40;;;;;;6127216;23;88137;-72
2023/07/07 07:02:55;;;;;;;7.07;2.75;;;40.20;34.10;;;;;;6127740;23;89043;-73
2023/07/07 07:05:21;;;;;;;6.47;2.97;;;40.30;34.00;;;;;;6127285;23;87464;-72
2023/07/07 07:07:48;;;;;;;7.60;3.65;;;40.40;32.70;;;;;;6127590;23;87348;-71
2023/07/07 07:10:14;;;;;;;5.57;3.83;;;40.30;32.60;;;;;;6126795;23;88565;-72
2023/07/07 07:12:40;;;;;;;6.82;2.75;;;40.30;32.50;;;;;;6126654;23;88600;-73
2023/07/07 07:15:07;;;;;;;5.38;3.40;;;40.60;32.70;;;;;;6100301;23;87684;-74
2023/07/07 07:17:33;;;;;;;6.20;3.72;;;40.00;32.70;;;;;;6127398;23;87318;-72
2023/07/07 07:19:58;;;;;;;5.35;3.22;;;39.80;33.60;;;;;;6128349;23;87549;-72
2023/07/07 07:22:24;;;;;;;7.28;2.97;;;40.20;33.10;;;;;;6128152;23;87406;-72
2023/07/07 07:24:50;;;;;;;6.18;3.47;;;40.60;32.60;;;;;;6128363;23;87415;-72
2023/07/07 07:27:15;;;;;;;5.20;4.15;;;40.80;32.80;;;;;;6129189;23;86586;-72
2023/07/07 07:29:45;;;;;;;4.38;3.15;;;41.40;32.20;;;;;;6128108;23;88136;-72
2023/07/07 07:32:11;;;;;;;8.23;3.97;;;42.00;31.70;;;;;;6128329;23;87785;-72
2023/07/07 07:34:37;;;;;;;7.82;3.60;;;42.40;33.20;;;;;;6127784;23;88237;-73
2023/07/07 07:37:04;;;;;;;6.95;4.13;;;42.50;31.40;;;;;;6128828;23;86937;-71
2023/07/07 07:39:30;;;;;;;4.97;3.78;;;42.30;31.90;;;;;;6128425;23;88054;-71
2023/07/07 07:41:56;;;;;;;8.73;4.30;;;42.50;30.80;;;;;;6128245;23;87265;-72
2023/07/07 07:44:23;;;;;;;5.35;3.67;;;42.70;31.10;;;;;;6128627;23;87014;-73
2023/07/07 07:46:50;;;;;;;;;;;42.40;30.80;;;;;;6129242;23;87072;-72
2023/07/07 07:49:16;;;;;;;5.65;4.05;;;42.30;30.30;;;;;;6130472;23;87352;-72
2023/07/07 07:51:42;;;;;;;5.10;3.72;;;42.60;31.70;;;;;;6128766;23;86704;-72
2023/07/07 07:54:11;;;;;;;7.55;4.25;;;43.30;31.70;;;;;;6128230;23;87120;-71
2023/07/07 07:56:38;;;;;;;8.25;4.53;;;43.20;30.90;;;;;;6128924;23;87217;-73
2023/07/07 07:59:05;;;;;;;7.40;3.72;;;42.90;30.80;;;;;;6127136;23;89087;-72
2023/07/07 08:01:31;;;;;;;5.85;5.25;;;43.60;30.50;;;;;;6128407;23;87341;-71
2023/07/07 08:03:57;;;;;;;5.70;4.13;;;44.20;29.90;;;;;;6128307;23;87273;-71
2023/07/07 08:06:22;;;;;;;6.13;4.22;;;44.50;31.80;;;;;;6128635;23;87332;-72
2023/07/07 08:08:48;;;;;;;10.80;6.60;;;45.20;30.30;;;;;;6128348;23;87644;-71
2023/07/07 08:11:20;;;;;;;9.40;7.60;;;45.60;29.90;;;;;;6127728;23;87806;-71
2023/07/07 08:13:46;;;;;;;10.30;8.13;;;45.60;29.60;;;;;;6128576;23;87378;-73
2023/07/07 08:16:12;;;;;;;7.22;4.95;;;46.30;30.00;;;;;;6128319;23;86436;-72
2023/07/07 08:18:39;;;;;;;6.75;4.82;;;46.80;29.90;;;;;;6127718;23;88126;-71
2023/07/07 08:21:05;;;;;;;6.72;5.47;;;47.30;29.10;;;;;;6127823;23;87326;-71
2023/07/07 08:23:31;;;;;;;6.63;4.65;;;47.10;29.30;;;;;;6127942;23;87914;-71
2023/07/07 08:25:57;;;;;;;9.38;5.38;;;47.00;28.80;;;;;;6128261;23;87276;-72
2023/07/07 08:28:22;;;;;;;8.02;5.82;;;46.90;29.10;;;;;;6127866;23;88025;-71
2023/07/07 08:30:48;;;;;;;6.25;5.65;;;46.90;29.00;;;;;;6127639;23;87916;-71
2023/07/07 08:33:15;;;;;;;9.98;5.63;;;47.60;28.50;;;;;;6128793;23;87837;-72
2023/07/07 08:35:40;;;;;;;7.93;5.53;;;47.10;28.90;;;;;;6128205;23;87325;-72
2023/07/07 08:38:06;;;;;;;7.35;6.45;;;47.30;28.20;;;;;;6126657;23;88435;-71
2023/07/07 08:40:53;;;;;;;7.53;6.15;;;46.90;29.20;;;;;;6127714;23;87348;-72
2023/07/07 08:43:20;;;;;;;7.63;6.40;;;47.40;29.40;;;;;;6129304;23;87332;-71
2023/07/07 08:46:23;;;;;;;8.00;5.80;;;47.80;27.80;;;;;;6128263;23;87312;-73
2023/07/07 08:49:02;;;;;;;9.27;5.75;;;47.40;28.40;;;;;;6060924;23;89011;-72
2023/07/07 08:51:36;;;;;;;7.22;6.05;;;47.50;28.50;;;;;;6128150;23;88772;-72
2023/07/07 08:54:16;;;;;;;;;;;47.70;28.40;;;;;;6127376;23;87438;-72
2023/07/07 08:56:47;;;;;;;;;;;48.40;28.10;;;;;;6130221;23;87326;-72
2023/07/07 08:59:12;;;;;;;8.85;5.93;;;48.70;28.30;;;;;;6129794;23;87979;-71
2023/07/07 09:02:06;;;;;;;13.15;10.95;;;48.40;28.40;;;;;;6125956;23;90237;-72
2023/07/07 09:04:55;;;;;;;9.77;6.57;;;49.10;27.90;;;;;;6126790;23;87475;-72
2023/07/07 09:08:03;;;;;;;8.93;6.90;;;48.70;28.20;;;;;;6129301;23;86614;-72
2023/07/07 09:10:35;;;;;;;7.82;7.03;;;49.30;27.90;;;;;;6127776;23;88305;-72
2023/07/07 09:13:23;;;;;;;7.40;6.28;;;48.50;27.20;;;;;;6127963;23;87729;-72
2023/07/07 09:16:11;;;;;;;7.20;6.13;;;48.10;27.80;;;;;;6127640;23;88281;-70
2023/07/07 09:18:51;;;;;;;8.95;5.57;;;48.40;27.50;;;;;;6126521;23;87686;-73
2023/07/07 09:21:41;;;;;;;7.80;7.07;;;48.80;27.90;;;;;;6127596;23;87685;-73
2023/07/07 09:24:31;;;;;;;10.10;6.05;;;48.30;28.40;;;;;;6127591;23;88258;-70
2023/07/07 09:27:06;;;;;;;6.10;5.30;;;48.50;28.80;;;;;;6127643;23;87281;-71
2023/07/07 09:29:32;;;;;;;10.32;6.70;;;48.70;27.10;;;;;;6128239;23;87383;-72
2023/07/07 09:32:02;;;;;;;9.35;6.82;;;49.20;29.20;;;;;;6128150;23;88063;-71
2023/07/07 09:34:30;;;;;;;11.70;7.70;;;49.90;27.90;;;;;;6127827;23;88221;-73
2023/07/07 09:37:35;;;;;;;7.82;7.03;;;50.50;28.40;;;;;;6127180;23;87517;-72
2023/07/07 09:40:17;;;;;;;8.10;7.38;;;51.30;27.60;;;;;;6128307;23;87581;-71
2023/07/07 09:43:10;;;;;;;8.32;7.47;;;51.40;27.10;;;;;;6127076;23;88559;-70
2023/07/07 09:45:41;;;;;;;12.82;7.07;;;51.40;26.70;;;;;;6127663;23;89236;-71
2023/07/07 09:48:30;;;;;;;9.25;7.13;;;51.60;26.90;;;;;;6128400;23;87451;-70
2023/07/07 09:51:05;;;;;;;9.00;6.97;;;51.30;26.80;;;;;;6128351;23;87759;-71
2023/07/07 09:53:34;;;;;;;10.25;7.93;;;51.20;27.30;;;;;;6127520;23;88132;-73
2023/07/07 09:56:01;;;;;;;9.70;8.65;;;51.10;27.30;;;;;;6128113;23;87701;-70
2023/07/07 09:58:42;;;;;;;9.35;6.85;;;51.00;27.00;;;;;;6127972;23;87319;-72
2023/07/07 10:01:09;;;;;;;9.60;6.88;;;50.90;27.30;;;;;;6127204;23;86933;-70
2023/07/07 10:03:44;;;;;;;7.50;6.68;;;50.40;27.90;;;;;;6127684;23;87619;-71
2023/07/07 10:06:33;;;;;;;6.70;5.70;;;49.60;27.30;;;;;;6127441;23;88348;-71
2023/07/07 10:08:59;;;;;;;8.45;5.93;;;48.10;27.40;;;;;;6126894;23;88047;-72
2023/07/07 10:11:27;;;;;;;7.53;4.25;;;46.80;27.30;;;;;;6101603;23;87426;-71
2023/07/07 10:13:55;;;;;;;8.98;4.85;;;45.00;29.20;;;;;;6127494;23;88345;-70
2023/07/07 10:16:33;;;;;;;4.55;3.10;;;43.20;28.80;;;;;;6127078;23;87627;-71
2023/07/07 10:19:07;;;;;;;7.28;2.95;;;41.50;29.70;;;;;;6127491;23;87091;-70
2023/07/07 10:21:33;;;;;;;6.03;2.75;;;40.30;31.10;;;;;;6127718;23;87176;-70
2023/07/07 10:24:00;;;;;;;4.85;2.47;;;39.40;33.80;;;;;;6127500;23;87425;-70
2023/07/07 10:26:25;;;;;;;4.28;2.85;;;38.50;33.50;;;;;;6126905;23;87742;-70
2023/07/07 10:28:54;;;;;;;8.35;2.53;;;37.60;31.40;;;;;;6127714;23;87388;-70
2023/07/07 10:31:23;;;;;;;5.93;2.40;;;37.10;32.50;;;;;;6127694;23;86962;-70
2023/07/07 10:33:54;;;;;;;5.60;2.38;;;36.50;32.70;;;;;;6100443;23;92123;-70
2023/07/07 10:36:26;;;;;;;6.90;2.25;;;35.60;33.30;;;;;;6127282;23;89150;-70
2023/07/07 10:38:57;;;;;;;4.30;2.13;;;35.00;36.50;;;;;;6127843;23;87080;-69
2023/07/07 10:41:24;;;;;;;7.47;2.03;;;34.60;34.50;;;;;;6127841;23;87218;-69
2023/07/07 10:43:49;;;;;;;4.68;2.13;;;34.30;35.00;;;;;;6126883;23;88050;-69
2023/07/07 10:46:15;;;;;;;5.10;2.28;;;34.20;37.00;;;;;;6127392;23;87343;-69
2023/07/07 10:48:44;;;;;;;12.43;2.13;;;34.40;37.20;;;;;;6128324;23;87107;-70
2023/07/07 10:51:28;;;;;;;;;;;34.40;36.00;;;;;;6127922;23;86637;-70
2023/07/07 10:54:21;;;;;;;7.40;2.30;;;34.00;37.50;;;;;;6128802;23;88566;-69
2023/07/07 10:56:53;;;;;;;5.07;1.88;;;34.00;40.90;;;;;;6128693;23;88926;-69
2023/07/07 10:59:28;;;;;;;5.90;2.28;;;33.90;39.30;;;;;;6128207;23;88462;-69
2023/07/07 11:02:32;;;;;;;4.82;2.25;;;33.80;37.70;;;;;;6128628;23;87370;-69
2023/07/07 11:05:10;;;;;;;6.85;2.30;;;33.70;40.70;;;;;;6127674;23;87527;-69
2023/07/07 11:07:48;;;;;;;6.93;2.40;;;33.50;37.60;;;;;;6126688;23;87813;-69
2023/07/07 11:10:24;;;;;;;6.80;2.15;;;33.30;39.70;;;;;;6126383;23;87430;-70
2023/07/07 11:13:22;;;;;;;4.45;2.03;;;33.10;39.20;;;;;;6126897;23;87549;-69
2023/07/07 11:16:25;;;;;;;6.25;1.83;;;32.90;40.00;;;;;;6126375;23;88230;-71
2023/07/07 11:19:09;;;;;;;4.40;2.22;;;32.80;41.40;;;;;;6125213;23;87466;-71
2023/07/07 11:21:48;;;;;;;8.15;2.38;;;33.10;42.00;;;;;;6123675;23;87417;-72
2023/07/07 11:24:40;;;;;;;6.60;1.90;;;33.20;40.20;;;;;;6126158;23;87281;-72
2023/07/07 11:27:26;;;;;;;7.30;2.17;;;33.10;41.80;;;;;;6124463;23;88724;-72
2023/07/07 11:30:24;;;;;;;7.53;1.95;;;33.10;40.10;;;;;;6125586;23;89180;-71
2023/07/07 11:33:24;;;;;;;4.78;2.30;;;33.10;42.40;;;;;;6125865;23;87387;-73
2023/07/07 11:36:27;;;;;;;6.10;2.13;;;33.00;39.10;;;;;;6126106;23;87523;-71
2023/07/07 11:39:10;;;;;;;7.05;2.10;;;33.00;41.50;;;;;;6126145;23;88784;-72
2023/07/07 11:41:50;;;;;;;5.13;2.03;;;32.90;41.40;;;;;;6124800;23;87900;-70
2023/07/07 11:44:47;;;;;;;7.40;2.05;;;33.00;40.50;;;;;;6125815;23;87337;-71
2023/07/07 11:47:45;;;;;;;8.52;2.28;;;33.20;39.80;;;;;;6126792;23;86549;-72
2023/07/07 11:50:40;;;;;;;5.57;2.08;;;33.00;40.80;;;;;;6125725;23;87310;-70
2023/07/07 11:53:11;;;;;;;6.60;2.03;;;33.00;38.70;;;;;;6124865;23;87646;-71
2023/07/07 11:55:59;;;;;;;4.53;1.73;;;33.00;41.90;;;;;;6125482;23;88230;-70
2023/07/07 11:58:31;;;;;;;;;;;33.10;40.70;;;;;;6126817;23;87705;-71
2023/07/07 12:01:13;;;;;;;3.38;1.88;;;33.00;40.80;;;;;;6126838;23;88148;-71
2023/07/07 12:03:39;;;;;;;6.53;1.67;;;32.90;39.40;;;;;;6125508;23;87584;-71
2023/07/07 12:06:19;;;;;;;5.03;1.88;;;32.80;40.70;;;;;;6125002;23;87365;-70
2023/07/07 12:09:05;;;;;;;6.82;1.77;;;32.80;37.90;;;;;;6126421;23;87283;-70
2023/07/07 12:11:38;;;;;;;9.05;1.60;;;32.70;40.50;;;;;;6123837;23;87549;-71
2023/07/07 12:14:31;;;;;;;7.60;3.42;;;32.60;38.50;;;;;;6126057;23;87328;-70
2023/07/07 12:16:59;;;;;;;6.93;1.55;;;32.70;40.00;;;;;;6125146;23;87396;-71
2023/07/07 12:19:46;;;;;;;10.35;2.50;;;32.60;38.90;;;;;;6124311;23;87407;-71
2023/07/07 12:22:26;;;;;;;7.88;2.20;;;32.60;39.20;;;;;;6124140;23;88589;-71
2023/07/07 12:25:05;;;;;;;7.90;1.90;;;32.70;43.70;;;;;;6124751;23;89035;-72
2023/07/07 12:27:39;;;;;;;5.35;1.75;;;32.60;37.10;;;;;;6125449;23;87594;-71
2023/07/07 12:30:07;;;;;;;9.32;2.30;;;32.70;38.60;;;;;;6128036;23;86976;-70
2023/07/07 12:32:33;;;;;;;11.82;2.13;;;32.80;41.90;;;;;;6127275;23;88031;-70
2023/07/07 12:35:12;;;;;;;9.35;1.63;;;32.80;41.30;;;;;;6127422;23;88362;-70
2023/07/07 12:37:38;;;;;;;6.43;1.98;;;32.80;39.90;;;;;;6126377;23;87160;-71
2023/07/07 12:40:10;;;;;;;9.07;2.08;;;32.70;37.20;;;;;;6128186;23;86536;-72
2023/07/07 12:42:42;;;;;;;7.78;1.70;;;32.70;38.30;;;;;;6127429;23;88037;-71
2023/07/07 12:45:30;;;;;;;7.50;1.55;;;32.70;38.60;;;;;;6127597;23;87805;-70
2023/07/07 12:48:06;;;;;;;8.68;2.15;;;32.70;38.80;;;;;;6125578;23;88383;-71
2023/07/07 12:50:39;;;;;;;;;;;32.70;41.20;;;;;;6124725;23;87251;-71
2023/07/07 12:53:25;;;;;;;8.73;1.95;;;32.80;37.80;;;;;;6127546;23;87396;-70
2023/07/07 12:56:21;;;;;;;5.07;1.48;;;32.50;37.20;;;;;;6127591;23;87738;-70
2023/07/07 12:58:55;;;;;;;9.32;2.13;;;32.30;36.00;;;;;;6124011;23;87262;-71
2023/07/07 13:01:38;;;;;;;8.18;1.95;;;32.20;37.00;;;;;;6127576;23;87129;-71
2023/07/07 13:04:13;;;;;;;7.38;1.77;;;32.20;41.80;;;;;;6127285;23;87078;-70
2023/07/07 13:06:41;;;;;;;8.80;1.70;;;32.20;35.80;;;;;;6127963;23;88258;-69
2023/07/07 13:09:12;;;;;;;7.28;2.08;;;32.20;41.00;;;;;;6126989;23;87395;-69
2023/07/07 13:11:41;;;;;;;7.72;2.10;;;32.20;36.80;;;;;;6127724;23;87395;-69
2023/07/07 13:14:26;;;;;;;8.27;2.00;;;32.10;37.40;;;;;;6126807;23;89259;-69
2023/07/07 13:16:52;;;;;;;5.60;1.65;;;32.20;41.20;;;;;;6126805;23;88259;-69
2023/07/07 13:19:19;;;;;;;6.25;2.08;;;32.30;40.40;;;;;;6127770;23;87540;-71
2023/07/07 13:21:46;;;;;;;4.97;1.63;;;32.40;39.00;;;;;;6127997;23;87307;-70
2023/07/07 13:24:18;;;;;;;5.03;1.35;;;32.40;36.40;;;;;;6127379;23;87686;-71
2023/07/07 13:26:44;;;;;;;7.03;1.80;;;32.40;46.20;;;;;;6126857;23;87657;-71
2023/07/07 13:29:09;;;;;;;6.22;1.23;;;32.30;40.10;;;;;;6127780;23;87053;-71
2023/07/07 13:31:41;;;;;;;9.43;1.58;;;32.10;47.00;;;;;;6126531;23;86983;-72
2023/07/07 13:34:18;;;;;;;7.07;1.65;;;32.10;47.70;;;;;;6127440;23;87604;-71
2023/07/07 13:36:45;;;;;;;7.97;1.77;;;32.10;47.90;;;;;;6127164;23;87738;-71
2023/07/07 13:39:17;;;;;;;4.85;1.70;;;32.10;43.70;;;;;;6126854;23;88293;-71
2023/07/07 13:41:47;;;;;;;11.38;1.80;;;32.00;42.50;;;;;;6127233;23;87335;-72
2023/07/07 13:44:21;;;;;;;4.18;1.42;;;32.00;47.40;;;;;;6124476;23;87736;-72
2023/07/07 13:46:49;;;;;;;6.68;2.03;;;31.90;45.00;;;;;;6122884;23;87268;-71
2023/07/07 13:49:17;;;;;;;5.85;1.63;;;31.80;45.30;;;;;;6126795;23;87677;-71
2023/07/07 13:51:52;;;;;;;5.15;1.55;;;31.70;48.50;;;;;;6127705;23;86899;-71
2023/07/07 13:54:19;;;;;;;;;;;31.70;47.20;;;;;;6127887;23;88558;-72
2023/07/07 13:56:49;;;;;;;3.33;1.35;;;31.60;44.70;;;;;;6129403;23;87343;-72
2023/07/07 13:59:24;;;;;;;9.82;1.88;;;31.60;46.20;;;;;;6128268;23;87337;-79
2023/07/07 14:01:51;;;;;;;;;;;31.40;40.30;;;;;;6126795;23;87320;-75
2023/07/07 14:04:30;;;;;;;8.52;1.95;;;31.30;43.20;;;;;;6126960;23;88986;-79
2023/07/07 14:06:55;;;;;;;6.10;1.85;;;31.20;44.40;;;;;;6124315;23;88604;-80
2023/07/07 14:09:23;;;;;;;6.47;1.48;;;31.20;45.50;;;;;;6117813;23;87295;-77
2023/07/07 14:11:57;;;;;;;7.18;1.90;;;31.30;47.20;;;;;;6098068;23;87501;-78
2023/07/07 14:14:23;;;;;;;4.63;1.77;;;31.30;45.80;;;;;;6124810;23;89182;-77
2023/07/07 14:16:56;;;;;;;6.93;1.48;;;31.20;44.10;;;;;;6124683;23;89130;-78
2023/07/07 14:19:35;;;;;;;4.00;1.83;;;31.20;47.50;;;;;;6125337;23;87626;-73
2023/07/07 14:22:01;;;;;;;7.38;1.70;;;31.20;48.30;;;;;;6126217;23;86584;-76
2023/07/07 14:24:29;;;;;;;5.53;1.50;;;31.20;46.10;;;;;;6127108;23;87701;-77
2023/07/07 14:26:56;;;;;;;7.20;1.52;;;31.10;47.40;;;;;;6126091;23;88286;-74
2023/07/07 14:29:29;;;;;;;7.38;2.15;;;31.00;48.00;;;;;;6128185;23;88264;-76
2023/07/07 14:32:01;;;;;;;3.80;1.50;;;31.00;48.60;;;;;;6129646;23;87403;-78
2023/07/07 14:34:27;;;;;;;6.35;1.60;;;31.00;46.30;;;;;;6129999;23;87877;-75
2023/07/07 14:36:56;;;;;;;5.10;1.63;;;30.90;49.70;;;;;;6094969;23;89655;-78
2023/07/07 14:39:32;;;;;;;6.80;2.03;;;30.80;47.50;;;;;;6126505;23;87249;-78
2023/07/07 14:42:18;;;;;;;3.90;1.52;;;30.80;46.20;;;;;;6127070;23;87364;-80
2023/07/07 14:44:50;;;;;;;9.02;1.92;;;30.90;47.40;;;;;;6126243;23;88412;-78
2023/07/07 14:47:27;;;;;;;7.72;2.05;;;30.90;44.80;;;;;;6125171;23;88064;-75
2023/07/07 14:49:53;;;;;;;4.47;2.03;;;31.00;45.00;;;;;;6123506;23;87245;-73
2023/07/07 14:52:53;;;;;;;7.32;1.50;;;30.90;47.70;;;;;;6126993;23;87248;-76
2023/07/07 14:55:23;;;;;;;5.05;1.58;;;31.00;50.10;;;;;;6122650;23;88629;-75
2023/07/07 14:58:01;;;;;;;6.20;1.90;;;30.90;48.40;;;;;;6092178;23;88129;-69
2023/07/07 15:00:43;;;;;;;3.65;1.80;;;31.00;47.70;;;;;;6123473;23;87250;-78
2023/07/07 15:03:32;;;;;;;7.78;1.92;;;31.00;47.80;;;;;;6125275;23;87049;-78
2023/07/07 15:06:07;;;;;;;6.45;1.90;;;31.00;50.40;;;;;;6126082;23;87501;-77
2023/07/07 15:08:36;;;;;;;6.75;2.08;;;30.90;45.30;;;;;;6126613;23;87883;-82
2023/07/07 15:11:04;;;;;;;5.13;1.60;;;30.90;50.90;;;;;;6125937;23;87431;-78
2023/07/07 15:13:30;;;;;;;5.03;1.83;;;30.90;48.50;;;;;;6126464;23;86464;-77
2023/07/07 15:15:56;;;;;;;8.18;2.00;;;30.80;46.00;;;;;;6125396;23;87537;-77
2023/07/07 15:18:22;;;;;;;13.13;1.45;;;30.90;48.00;;;;;;6125059;23;87484;-75
2023/07/07 15:20:48;;;;;;;6.80;2.17;;;30.90;47.60;;;;;;6117313;23;88338;-72
2023/07/07 15:23:15;;;;;;;7.70;2.22;;;30.80;40.90;;;;;;6120651;23;87517;-71
2023/07/07 15:25:42;;;;;;;6.47;1.63;;;30.90;40.20;;;;;;6125691;23;87985;-73
2023/07/07 15:28:13;;;;;;;11.35;2.25;;;31.00;42.00;;;;;;6098587;23;87957;-71
2023/07/07 15:30:39;;;;;;;11.25;1.90;;;31.20;41.50;;;;;;6125531;23;87436;-72
2023/07/07 15:33:05;;;;;;;5.15;2.00;;;31.20;43.20;;;;;;6127201;23;87329;-70
2023/07/07 15:35:31;;;;;;;8.80;2.03;;;31.20;38.00;;;;;;6126717;23;88369;-70
2023/07/07 15:38:19;;;;;;;4.90;1.92;;;31.30;41.30;;;;;;6127416;23;88449;-72
2023/07/07 15:40:45;;;;;;;8.13;2.25;;;31.20;41.30;;;;;;6127151;23;87013;-71
2023/07/07 15:43:11;;;;;;;8.23;2.20;;;31.20;39.00;;;;;;6128278;23;87210;-71
2023/07/07 15:45:36;;;;;;;9.63;1.80;;;31.20;41.60;;;;;;6127959;23;89698;-71
2023/07/07 15:48:02;;;;;;;14.38;1.75;;;31.20;40.90;;;;;;6128412;23;88137;-70
2023/07/07 15:50:28;;;;;;;7.55;1.90;;;31.10;41.10;;;;;;6127901;23;87516;-70
2023/07/07 15:52:54;;;;;;;9.00;1.92;;;31.20;40.80;;;;;;6129249;23;86914;-70
2023/07/07 15:55:20;;;;;;;8.65;1.50;;;31.20;42.00;;;;;;6128704;23;87591;-70
2023/07/07 15:57:45;;;;;;;6.53;1.88;;;31.30;43.00;;;;;;6128491;23;87628;-71
2023/07/07 16:00:30;;;;;;;5.97;1.92;;;31.20;39.90;;;;;;6127518;23;87498;-69
2023/07/07 16:02:56;;;;;;;8.35;2.10;;;31.20;41.80;;;;;;6128914;23;86263;-71
2023/07/07 16:05:22;;;;;;;8.07;2.08;;;31.20;38.80;;;;;;6128611;23;88114;-72
2023/07/07 16:07:48;;;;;;;6.97;1.70;;;31.20;39.80;;;;;;6127975;23;87189;-70
2023/07/07 16:10:14;;;;;;;6.75;1.92;;;31.10;39.70;;;;;;6127431;23;88121;-69
2023/07/07 16:12:40;;;;;;;5.47;1.70;;;31.10;38.20;;;;;;6128467;23;87176;-70
2023/07/07 16:15:07;;;;;;;8.10;2.13;;;31.10;39.30;;;;;;6126092;23;89232;-70
2023/07/07 16:17:33;;;;;;;7.93;2.15;;;31.10;39.40;;;;;;6127675;23;89985;-71
2023/07/07 16:20:09;;;;;;;11.35;2.90;;;31.20;39.10;;;;;;6128111;23;87304;-70
2023/07/07 16:22:51;;;;;;;8.73;2.70;;;31.10;38.00;;;;;;6128198;23;87581;-70
2023/07/07 16:25:17;;;;;;;11.07;3.65;;;31.10;38.90;;;;;;6126534;23;88716;-72
2023/07/07 16:27:43;;;;;;;7.95;3.35;;;31.00;37.60;;;;;;6128384;23;87797;-71